createdAt,value
2016-11-17T00:00:30.596Z,11.38
2016-11-17T00:01:45.664Z,11.3
2016-11-17T00:03:00.635Z,11.23
2016-11-17T00:04:15.150Z,11.3
2016-11-17T00:05:30.189Z,11.3
2016-11-17T00:06:44.761Z,11.27
2016-11-17T00:07:59.832Z,11.25
2016-11-17T00:09:14.730Z,11.33
2016-11-17T00:10:29.389Z,11.23
2016-11-17T00:11:44.564Z,11.27
2016-11-17T00:13:14.607Z,11.16
2016-11-17T00:14:29.491Z,11.26
2016-11-17T00:15:44.917Z,11.25
2016-11-17T00:17:00.347Z,11.3
2016-11-17T00:18:14.942Z,11.22
2016-11-17T00:19:44.609Z,11.3
2016-11-17T00:20:59.969Z,11.23
2016-11-17T00:22:14.487Z,11.23
2016-11-17T00:28:40.270Z,11.25
2016-11-17T00:29:54.828Z,11.23
2016-11-17T00:31:09.593Z,11.26
2016-11-17T00:32:24.662Z,11.23
2016-11-17T00:33:39.728Z,11.22
2016-11-17T00:34:54.752Z,11.3
2016-11-17T00:36:09.319Z,11.27
2016-11-17T00:37:23.977Z,11.26
2016-11-17T00:38:41.421Z,11.31
2016-11-17T00:39:57.170Z,11.23
2016-11-17T00:43:25.378Z,11.26
2016-11-17T00:44:40.247Z,11.27
2016-11-17T00:45:54.950Z,11.19
2016-11-17T00:47:09.991Z,11.25
2016-11-17T00:48:24.642Z,11.13
2016-11-17T00:49:39.917Z,11.18
2016-11-17T00:50:54.452Z,11.19
2016-11-17T00:52:09.279Z,11.27
2016-11-17T00:53:24.134Z,11.27
2016-11-17T00:54:39.160Z,11.25
2016-11-17T00:55:53.856Z,11.3
2016-11-17T00:57:08.469Z,11.33
2016-11-17T00:58:23.420Z,11.26
2016-11-17T00:59:38.161Z,11.35
2016-11-17T01:00:52.648Z,11.34
2016-11-17T01:02:07.317Z,11.35
2016-11-17T01:03:22.174Z,11.26
2016-11-17T01:04:37.303Z,11.27
2016-11-17T01:05:52.239Z,11.37
2016-11-17T01:07:06.798Z,11.37
2016-11-17T01:08:21.727Z,11.44
2016-11-17T01:09:37.353Z,11.4
2016-11-17T01:10:52.313Z,11.41
2016-11-17T01:12:06.915Z,11.37
2016-11-17T01:13:21.342Z,11.37
2016-11-17T01:14:36.080Z,11.34
2016-11-17T01:15:51.721Z,11.26
2016-11-17T01:17:06.565Z,11.38
2016-11-17T01:18:21.184Z,11.31
2016-11-17T01:19:35.865Z,11.41
2016-11-17T01:20:50.372Z,11.43
2016-11-17T01:22:05.250Z,11.49
2016-11-17T01:23:20.127Z,11.49
2016-11-17T01:24:34.832Z,11.45
2016-11-17T01:25:49.435Z,11.49
2016-11-17T01:27:04.245Z,11.53
2016-11-17T01:28:18.940Z,11.48
2016-11-17T01:29:34.100Z,11.52
2016-11-17T01:30:48.784Z,11.49
2016-11-17T01:32:03.462Z,11.4
2016-11-17T01:33:18.722Z,11.37
2016-11-17T01:34:33.400Z,11.4
2016-11-17T01:35:48.700Z,11.48
2016-11-17T01:37:04.032Z,11.4
2016-11-17T01:38:18.830Z,11.41
2016-11-17T01:39:48.604Z,11.38
2016-11-17T01:41:18.665Z,11.43
2016-11-17T01:42:47.935Z,11.38
2016-11-17T01:44:02.551Z,11.49
2016-11-17T01:47:46.485Z,11.38
2016-11-17T01:49:01.037Z,11.52
2016-11-17T01:50:15.419Z,11.51
2016-11-17T01:51:30.032Z,11.48
2016-11-17T01:52:44.788Z,11.51
2016-11-17T01:54:00.242Z,11.51
2016-11-17T01:55:15.135Z,11.49
2016-11-17T01:56:29.604Z,11.55
2016-11-17T01:57:44.163Z,11.52
2016-11-17T01:59:01.521Z,11.51
2016-11-17T02:00:16.888Z,11.52
2016-11-17T02:01:32.331Z,11.48
2016-11-17T02:02:47.005Z,11.52
2016-11-17T02:04:01.378Z,11.48
2016-11-17T02:05:15.989Z,11.49
2016-11-17T02:06:30.714Z,11.51
2016-11-17T02:07:46.141Z,11.43
2016-11-17T02:09:00.749Z,11.4
2016-11-17T02:10:29.968Z,11.49
2016-11-17T02:11:44.485Z,11.52
2016-11-17T02:12:59.747Z,11.49
2016-11-17T02:14:14.748Z,11.49
2016-11-17T02:15:29.369Z,11.45
2016-11-17T02:16:44.250Z,11.43
2016-11-17T02:17:59.321Z,11.44
2016-11-17T02:19:15.853Z,11.37
2016-11-17T02:20:30.473Z,11.34
2016-11-17T02:21:45.088Z,11.37
2016-11-17T02:22:59.553Z,11.23
2016-11-17T02:24:14.429Z,11.25
2016-11-17T02:25:29.559Z,11.23
2016-11-17T02:26:44.733Z,11.2
2016-11-17T02:27:59.361Z,11.19
2016-11-17T02:29:14.284Z,11.08
2016-11-17T02:30:28.938Z,11.2
2016-11-17T02:31:44.171Z,11.18
2016-11-17T02:32:58.772Z,11.13
2016-11-17T02:34:13.423Z,11.15
2016-11-17T02:35:28.568Z,11.18
2016-11-17T02:36:43.586Z,11.12
2016-11-17T02:37:59.694Z,11.08
2016-11-17T02:39:14.294Z,11.07
2016-11-17T02:40:29.499Z,11.01
2016-11-17T02:41:44.119Z,11.08
2016-11-17T02:42:59.204Z,11.01
2016-11-17T02:44:14.625Z,10.89
2016-11-17T02:45:29.596Z,10.95
2016-11-17T02:46:44.405Z,10.9
2016-11-17T02:47:59.214Z,10.9
2016-11-17T02:49:14.087Z,10.94
2016-11-17T02:50:29.705Z,10.92
2016-11-17T02:51:59.246Z,10.95
2016-11-17T02:53:14.018Z,10.97
2016-11-17T02:54:28.595Z,10.83
2016-11-17T02:55:43.850Z,10.9
2016-11-17T02:56:59.096Z,10.94
2016-11-17T02:58:13.906Z,10.92
2016-11-17T02:59:28.785Z,10.83
2016-11-17T03:00:44.124Z,10.68
2016-11-17T03:01:59.721Z,10.67
2016-11-17T03:03:15.016Z,10.69
2016-11-17T03:04:29.444Z,10.83
2016-11-17T03:05:44.100Z,10.9
2016-11-17T03:06:58.695Z,10.9
2016-11-17T03:08:13.800Z,10.82
2016-11-17T03:09:31.555Z,10.72
2016-11-17T03:10:50.070Z,10.8
2016-11-17T03:12:04.835Z,10.75
2016-11-17T03:13:19.753Z,10.77
2016-11-17T03:14:34.891Z,10.79
2016-11-17T03:15:49.702Z,10.8
2016-11-17T03:17:06.570Z,10.76
2016-11-17T03:18:21.463Z,10.86
2016-11-17T03:19:36.120Z,10.75
2016-11-17T03:20:51.197Z,10.76
2016-11-17T03:22:06.237Z,10.82
2016-11-17T03:23:20.744Z,10.77
2016-11-17T03:24:35.251Z,10.72
2016-11-17T03:25:50.142Z,10.67
2016-11-17T03:27:04.934Z,10.72
2016-11-17T03:28:19.747Z,10.67
2016-11-17T03:29:34.269Z,10.72
2016-11-17T03:30:48.610Z,10.77
2016-11-17T03:32:03.480Z,10.65
2016-11-17T03:33:18.189Z,10.75
2016-11-17T03:34:32.911Z,10.65
2016-11-17T03:35:47.442Z,10.8
2016-11-17T03:37:02.453Z,10.82
2016-11-17T03:38:17.129Z,10.67
2016-11-17T03:39:32.572Z,10.68
2016-11-17T03:40:47.471Z,10.69
2016-11-17T03:42:02.470Z,10.71
2016-11-17T03:43:16.881Z,10.75
2016-11-17T03:44:31.332Z,10.72
2016-11-17T03:45:46.160Z,10.65
2016-11-17T03:47:15.885Z,10.65
2016-11-17T03:48:30.564Z,10.67
2016-11-17T03:49:45.418Z,10.65
2016-11-17T03:51:00.475Z,10.68
2016-11-17T03:55:27.377Z,10.64
2016-11-17T03:56:41.963Z,10.77
2016-11-17T03:57:56.912Z,10.75
2016-11-17T03:59:12.024Z,10.72
2016-11-17T04:00:26.644Z,10.67
2016-11-17T04:01:41.575Z,10.77
2016-11-17T04:02:56.357Z,10.68
2016-11-17T04:04:10.983Z,10.68
2016-11-17T04:05:26.012Z,10.69
2016-11-17T04:06:40.655Z,10.64
2016-11-17T04:08:24.620Z,10.72
2016-11-17T04:09:39.934Z,10.64
2016-11-17T04:10:55.483Z,10.61
2016-11-17T04:12:10.000Z,10.64
2016-11-17T04:13:24.602Z,10.67
2016-11-17T04:14:39.572Z,10.59
2016-11-17T04:15:54.692Z,10.53
2016-11-17T04:17:09.331Z,10.59
2016-11-17T04:18:24.007Z,10.59
2016-11-17T04:19:53.689Z,10.57
2016-11-17T04:21:08.598Z,10.57
2016-11-17T04:22:23.228Z,10.59
2016-11-17T04:25:07.560Z,10.57
2016-11-17T04:26:22.739Z,10.65
2016-11-17T04:27:37.236Z,10.59
2016-11-17T04:31:49.098Z,10.46
2016-11-17T04:33:04.473Z,10.51
2016-11-17T04:34:19.465Z,10.49
2016-11-17T04:35:34.142Z,10.49
2016-11-17T04:36:48.886Z,10.49
2016-11-17T04:40:38.392Z,10.67
2016-11-17T04:42:15.617Z,10.64
2016-11-17T04:43:40.155Z,10.62
2016-11-17T04:45:19.616Z,10.62
2016-11-17T04:46:39.107Z,10.68
2016-11-17T04:47:56.744Z,10.64
2016-11-17T04:49:11.309Z,10.62
2016-11-17T04:50:25.997Z,10.71
2016-11-17T04:51:41.392Z,10.58
2016-11-17T04:52:56.324Z,10.64
2016-11-17T04:54:11.531Z,10.71
2016-11-17T04:55:26.433Z,10.77
2016-11-17T04:56:40.952Z,10.69
2016-11-17T04:57:56.303Z,10.69
2016-11-17T04:59:11.243Z,10.65
2016-11-17T05:00:26.015Z,10.67
2016-11-17T05:01:40.936Z,10.64
2016-11-17T05:02:55.604Z,10.72
2016-11-17T05:04:10.924Z,10.77
2016-11-17T05:05:26.097Z,10.69
2016-11-17T05:06:40.979Z,10.82
2016-11-17T05:07:55.691Z,10.71
2016-11-17T05:09:10.744Z,10.65
2016-11-17T05:10:26.490Z,10.71
2016-11-17T05:11:41.660Z,10.71
2016-11-17T05:12:56.883Z,10.68
2016-11-17T05:14:11.721Z,10.67
2016-11-17T05:15:26.287Z,10.77
2016-11-17T05:16:41.663Z,10.68
2016-11-17T05:17:58.128Z,10.67
2016-11-17T05:19:13.175Z,10.68
2016-11-17T05:20:28.580Z,10.77
2016-11-17T05:21:42.937Z,11.02
2016-11-17T05:22:57.979Z,11.45
2016-11-17T05:24:13.645Z,11.58
2016-11-17T05:25:28.343Z,11.48
2016-11-17T05:26:43.135Z,11.26
2016-11-17T05:27:58.051Z,11.19
2016-11-17T05:29:12.640Z,11.07
2016-11-17T05:30:27.868Z,10.98
2016-11-17T05:31:43.316Z,10.84
2016-11-17T05:33:13.977Z,10.83
2016-11-17T05:34:28.854Z,10.86
2016-11-17T05:35:44.512Z,10.84
2016-11-17T05:36:59.719Z,10.83
2016-11-17T05:38:15.134Z,10.83
2016-11-17T05:39:29.961Z,10.89
2016-11-17T05:40:44.668Z,10.97
2016-11-17T05:41:59.282Z,10.9
2016-11-17T05:43:13.736Z,10.87
2016-11-17T05:44:28.734Z,10.92
2016-11-17T05:45:43.786Z,10.72
2016-11-17T05:46:58.789Z,10.79
2016-11-17T05:48:13.613Z,10.76
2016-11-17T05:49:43.185Z,10.82
2016-11-17T05:50:58.543Z,10.77
2016-11-17T05:52:13.306Z,10.79
2016-11-17T05:53:28.199Z,10.8
2016-11-17T05:54:43.170Z,10.75
2016-11-17T05:55:59.130Z,10.77
2016-11-17T05:57:13.993Z,10.8
2016-11-17T05:58:28.886Z,10.68
2016-11-17T05:59:46.206Z,10.75
2016-11-17T06:01:01.030Z,10.76
2016-11-17T06:02:16.152Z,10.77
2016-11-17T06:05:00.626Z,10.67
2016-11-17T06:06:15.584Z,10.77
2016-11-17T06:07:30.610Z,10.69
2016-11-17T06:08:45.243Z,10.67
2016-11-17T06:09:59.994Z,10.69
2016-11-17T06:11:14.810Z,10.71
2016-11-17T06:12:29.521Z,10.77
2016-11-17T06:13:44.324Z,10.76
2016-11-17T06:14:58.772Z,10.77
2016-11-17T06:16:13.554Z,10.69
2016-11-17T06:17:28.340Z,10.65
2016-11-17T06:18:43.207Z,10.76
2016-11-17T06:19:58.413Z,10.69
2016-11-17T06:21:13.144Z,10.65
2016-11-17T06:22:28.316Z,10.71
2016-11-17T06:23:43.266Z,10.67
2016-11-17T06:24:58.060Z,10.68
2016-11-17T06:26:12.414Z,10.67
2016-11-17T06:27:27.263Z,10.68
2016-11-17T06:28:41.991Z,10.82
2016-11-17T06:29:56.614Z,10.75
2016-11-17T06:31:11.191Z,10.75
2016-11-17T06:32:25.680Z,10.71
2016-11-17T06:33:40.838Z,10.77
2016-11-17T06:34:55.711Z,10.79
2016-11-17T06:36:10.628Z,10.75
2016-11-17T06:40:22.545Z,10.75
2016-11-17T06:41:37.392Z,10.77
2016-11-17T06:42:52.525Z,10.76
2016-11-17T06:44:07.853Z,10.76
2016-11-17T06:45:22.818Z,10.79
2016-11-17T06:46:37.479Z,10.84
2016-11-17T06:47:52.351Z,10.86
2016-11-17T06:49:07.261Z,10.77
2016-11-17T06:50:22.828Z,10.77
2016-11-17T06:51:37.459Z,10.79
2016-11-17T06:52:52.756Z,10.79
2016-11-17T06:54:07.654Z,10.77
2016-11-17T06:55:22.613Z,10.84
2016-11-17T06:56:52.172Z,10.8
2016-11-17T06:58:06.965Z,10.77
2016-11-17T06:59:21.692Z,10.79
2016-11-17T07:00:37.048Z,10.77
2016-11-17T07:01:52.407Z,10.76
2016-11-17T07:03:08.223Z,10.77
2016-11-17T07:04:23.507Z,10.72
2016-11-17T07:05:37.896Z,10.75
2016-11-17T07:06:52.722Z,10.77
2016-11-17T07:08:07.512Z,10.67
2016-11-17T07:09:22.174Z,10.68
2016-11-17T07:10:36.750Z,10.72
2016-11-17T07:11:51.639Z,10.65
2016-11-17T07:13:06.600Z,10.71
2016-11-17T07:14:21.887Z,10.77
2016-11-17T07:15:37.273Z,10.77
2016-11-17T07:16:52.199Z,10.75
2016-11-17T07:18:07.076Z,10.82
2016-11-17T07:19:24.320Z,10.76
2016-11-17T07:20:38.605Z,10.8
2016-11-17T07:21:53.656Z,10.8
2016-11-17T07:23:23.543Z,10.89
2016-11-17T07:24:38.844Z,10.82
2016-11-17T07:25:53.081Z,10.82
2016-11-17T07:27:08.072Z,10.75
2016-11-17T07:28:22.499Z,10.79
2016-11-17T07:29:37.660Z,10.87
2016-11-17T07:30:52.830Z,10.95
2016-11-17T07:32:07.406Z,10.87
2016-11-17T07:33:22.240Z,10.79
2016-11-17T07:34:37.433Z,10.79
2016-11-17T07:35:51.892Z,10.76
2016-11-17T07:37:06.810Z,10.8
2016-11-17T07:38:21.950Z,10.75
2016-11-17T07:39:37.013Z,10.76
2016-11-17T07:40:52.254Z,10.71
2016-11-17T07:42:07.914Z,10.86
2016-11-17T07:43:22.915Z,10.86
2016-11-17T07:44:37.845Z,10.87
2016-11-17T07:45:53.153Z,10.86
2016-11-17T07:47:37.105Z,10.92
2016-11-17T07:48:52.070Z,10.92
2016-11-17T07:50:06.993Z,10.98
2016-11-17T07:51:21.907Z,10.9
2016-11-17T07:52:36.556Z,10.9
2016-11-17T07:53:51.069Z,10.95
2016-11-17T07:55:05.525Z,10.94
2016-11-17T07:56:21.149Z,10.98
2016-11-17T07:57:36.139Z,10.98
2016-11-17T07:58:51.729Z,11
2016-11-17T08:00:06.283Z,11.01
2016-11-17T08:01:21.432Z,11.07
2016-11-17T08:02:36.096Z,10.98
2016-11-17T08:03:51.110Z,11.12
2016-11-17T08:05:06.343Z,11.15
2016-11-17T08:06:20.814Z,11.13
2016-11-17T08:07:35.774Z,11.18
2016-11-17T08:08:50.703Z,11.3
2016-11-17T08:10:05.985Z,11.27
2016-11-17T08:11:21.393Z,11.37
2016-11-17T08:12:36.485Z,11.34
2016-11-17T08:13:51.263Z,11.38
2016-11-17T08:15:06.293Z,11.31
2016-11-17T08:16:21.548Z,11.35
2016-11-17T08:17:36.644Z,11.3
2016-11-17T08:18:51.300Z,11.27
2016-11-17T08:20:06.544Z,11.34
2016-11-17T08:21:21.743Z,11.33
2016-11-17T08:22:36.334Z,11.16
2016-11-17T08:23:51.331Z,11.3
2016-11-17T08:25:06.651Z,11.33
2016-11-17T08:26:21.581Z,11.33
2016-11-17T08:27:36.763Z,11.26
2016-11-17T08:28:51.518Z,11.35
2016-11-17T08:30:06.804Z,11.45
2016-11-17T08:31:21.723Z,11.3
2016-11-17T08:32:36.502Z,11.33
2016-11-17T08:33:52.044Z,11.25
2016-11-17T08:35:06.666Z,11.34
2016-11-17T08:36:22.782Z,11.22
2016-11-17T08:37:40.455Z,11.38
2016-11-17T08:39:10.508Z,11.48
2016-11-17T08:40:25.575Z,11.44
2016-11-17T08:41:40.506Z,11.51
2016-11-17T08:42:55.672Z,11.52
2016-11-17T08:44:10.205Z,11.51
2016-11-17T08:45:25.088Z,11.48
2016-11-17T08:46:39.903Z,11.51
2016-11-17T08:47:54.408Z,11.63
2016-11-17T08:49:10.230Z,11.53
2016-11-17T08:50:25.378Z,11.59
2016-11-17T08:51:40.789Z,11.65
2016-11-17T08:52:55.645Z,11.59
2016-11-17T08:54:10.479Z,11.59
2016-11-17T08:55:25.156Z,11.59
2016-11-17T08:56:39.984Z,11.65
2016-11-17T08:57:54.628Z,11.73
2016-11-17T08:59:09.441Z,11.73
2016-11-17T09:00:24.186Z,11.86
2016-11-17T09:01:38.948Z,11.88
2016-11-17T09:02:53.361Z,11.96
2016-11-17T09:04:08.128Z,11.97
2016-11-17T09:05:22.839Z,12
2016-11-17T09:06:37.721Z,12.03
2016-11-17T09:07:53.084Z,11.88
2016-11-17T09:09:07.985Z,11.95
2016-11-17T09:10:22.582Z,11.99
2016-11-17T09:11:37.297Z,12.15
2016-11-17T09:12:52.196Z,12.18
2016-11-17T09:14:06.782Z,12.18
2016-11-17T09:15:21.434Z,12.07
2016-11-17T09:16:36.443Z,12.08
2016-11-17T09:17:51.783Z,12.12
2016-11-17T09:19:06.490Z,12.25
2016-11-17T09:20:21.430Z,12.26
2016-11-17T09:21:36.378Z,12.43
2016-11-17T09:22:50.923Z,12.54
2016-11-17T09:29:46.395Z,12.62
2016-11-17T09:31:02.001Z,12.7
2016-11-17T09:32:16.910Z,12.88
2016-11-17T09:33:31.738Z,13.01
2016-11-17T09:34:46.484Z,13.2
2016-11-17T09:36:01.579Z,13.17
2016-11-17T09:39:30.601Z,13.08
2016-11-17T09:40:45.511Z,13.12
2016-11-17T09:41:59.998Z,13.13
2016-11-17T09:43:15.344Z,13.19
2016-11-17T09:44:30.248Z,13.08
2016-11-17T09:45:45.649Z,13.01
2016-11-17T09:52:54.708Z,12.8
2016-11-17T09:54:10.476Z,12.81
2016-11-17T09:55:25.569Z,12.87
2016-11-17T09:56:40.181Z,12.76
2016-11-17T09:58:10.202Z,12.78
2016-11-17T09:59:25.294Z,12.65
2016-11-17T10:00:40.352Z,12.63
2016-11-17T10:01:55.215Z,12.68
2016-11-17T10:03:12.655Z,12.7
2016-11-17T10:04:27.366Z,12.57
2016-11-17T10:05:42.648Z,12.62
2016-11-17T10:06:58.143Z,12.53
2016-11-17T10:08:28.205Z,12.58
2016-11-17T10:09:43.204Z,12.69
2016-11-17T10:12:27.603Z,12.5
2016-11-17T10:13:42.536Z,12.4
2016-11-17T10:14:57.712Z,12.37
2016-11-17T10:16:12.398Z,12.3
2016-11-17T10:17:26.816Z,12.33
2016-11-17T10:18:41.705Z,12.35
2016-11-17T10:19:57.297Z,12.33
2016-11-17T10:21:13.028Z,12.35
2016-11-17T10:22:27.808Z,12.26
2016-11-17T10:23:42.529Z,12.28
2016-11-17T10:24:57.820Z,12.3
2016-11-17T10:26:13.082Z,12.08
2016-11-17T10:27:28.210Z,12.17
2016-11-17T10:28:43.715Z,12.29
2016-11-17T10:29:58.186Z,12.28
2016-11-17T10:31:13.668Z,12.25
2016-11-17T10:33:57.975Z,12.21
2016-11-17T10:35:12.765Z,12.12
2016-11-17T10:36:42.356Z,12.08
2016-11-17T10:37:57.994Z,12.02
2016-11-17T10:39:12.636Z,12.02
2016-11-17T10:40:27.580Z,12.07
2016-11-17T10:41:42.563Z,12.12
2016-11-17T10:42:57.313Z,12.15
2016-11-17T10:44:12.912Z,12.21
2016-11-17T10:45:27.580Z,12.2
2016-11-17T10:46:56.736Z,12.17
2016-11-17T10:48:11.231Z,12.2
2016-11-17T10:49:26.158Z,12.15
2016-11-17T10:50:40.737Z,12.28
2016-11-17T10:51:55.568Z,12.25
2016-11-17T10:53:10.390Z,12.21
2016-11-17T10:54:25.105Z,12.12
2016-11-17T10:55:39.924Z,12.18
2016-11-17T10:56:55.161Z,12.07
2016-11-17T10:58:10.113Z,12.08
2016-11-17T10:59:24.523Z,11.96
2016-11-17T11:00:39.371Z,12.02
2016-11-17T11:02:08.943Z,11.99
2016-11-17T11:03:24.258Z,12.08
2016-11-17T11:04:39.459Z,12.14
2016-11-17T11:05:54.244Z,12.14
2016-11-17T11:07:08.674Z,12.11
2016-11-17T11:08:23.642Z,12.11
2016-11-17T11:09:39.336Z,12.14
2016-11-17T11:10:54.367Z,12.12
2016-11-17T11:12:08.878Z,12.14
2016-11-17T11:13:23.299Z,12.2
2016-11-17T11:14:38.416Z,12.29
2016-11-17T11:15:53.453Z,12.33
2016-11-17T11:17:09.277Z,12.4
2016-11-17T11:18:24.278Z,12.37
2016-11-17T11:19:38.964Z,12.43
2016-11-17T11:20:53.606Z,12.47
2016-11-17T11:22:25.218Z,12.5
2016-11-17T11:23:40.705Z,12.54
2016-11-17T11:24:55.505Z,12.54
2016-11-17T11:26:10.122Z,12.55
2016-11-17T11:27:24.857Z,12.69
2016-11-17T11:28:39.740Z,12.7
2016-11-17T11:29:55.734Z,12.66
2016-11-17T11:31:10.492Z,12.63
2016-11-17T11:32:25.067Z,12.65
2016-11-17T11:33:41.238Z,12.65
2016-11-17T11:34:55.557Z,12.61
2016-11-17T11:36:10.183Z,12.65
2016-11-17T11:37:24.748Z,12.65
2016-11-17T11:38:39.211Z,12.65
2016-11-17T11:39:54.515Z,12.63
2016-11-17T11:41:09.137Z,12.69
2016-11-17T11:42:23.600Z,12.69
2016-11-17T11:43:38.126Z,12.7
2016-11-17T11:44:53.468Z,12.72
2016-11-17T11:46:08.751Z,12.75
2016-11-17T11:47:23.101Z,12.8
2016-11-17T11:48:38.041Z,12.69
2016-11-17T11:49:52.565Z,12.75
2016-11-17T11:51:07.340Z,12.73
2016-11-17T11:52:22.110Z,12.78
2016-11-17T11:53:37.030Z,12.81
2016-11-17T11:54:51.825Z,12.88
2016-11-17T11:56:06.898Z,12.98
2016-11-17T11:57:21.592Z,13.02
2016-11-17T11:58:36.363Z,13.01
2016-11-17T11:59:51.706Z,13.01
2016-11-17T12:01:06.962Z,13.08
2016-11-17T12:02:21.918Z,13.05
2016-11-17T12:03:36.613Z,13.13
2016-11-17T12:04:51.227Z,13.08
2016-11-17T12:06:06.050Z,13.06
2016-11-17T12:07:20.734Z,13.16
2016-11-17T12:08:35.351Z,13.12
2016-11-17T12:09:49.978Z,13.13
2016-11-17T12:11:05.471Z,13.2
2016-11-17T12:12:20.655Z,13.21
2016-11-17T12:13:35.779Z,13.2
2016-11-17T12:14:51.086Z,13.27
2016-11-17T12:16:05.778Z,13.26
2016-11-17T12:17:20.667Z,13.21
2016-11-17T12:18:35.632Z,13.23
2016-11-17T12:19:50.329Z,13.27
2016-11-17T12:21:05.318Z,13.2
